Meteo Giornale » Osservazioni meteo Italia » Aosta

ore: 06:20 - Osservazioni Meteo Aosta
Lat. 45° 44' N Lon. 7° 22' E Alt. 546 metri s.l.m.

nuvoloso Europe/Rome

16 °C

Nuvoloso

Temp. 24 Ore

16 °C

30 °C

Nord

1.8 Km/h

Dew point 16 °C

Umidità 100 %

Visibilità  10 Km

Il sole sorge alle ore 06:32

Il sole tramonta alle ore 20:35

Data e Ora Cielo e Fenomeni T °C DP °C Um. % Pres. hPa Vis. km Vento km/h
Oggi h: 06:20 nuvoloso Nuvoloso 16 16 100 1014 10 N 1.8
Ieri h: 20:50 poco_nuvoloso Poco Nuvoloso 21 14 64 1014 10 SE 11.1
Ieri h: 20:20 poco_nuvoloso Poco Nuvoloso 21 14 64 1014 10 SE 11.1
Ieri h: 19:50 molto_nuvoloso Molto Nuvoloso 21 14 64 1013 10 E 11.1
Ieri h: 18:50 molto_nuvoloso Molto Nuvoloso 21 14 64 1013 10 E 29.6
Ieri h: 18:20 nuvoloso Nuvoloso 21 15 68 1013 10 E 38.8
Ieri h: 17:50 coperto_pioggia Pioggia Debole 22 14 60 1014 10 E 38.8
Ieri h: 17:20 sereno Sereno 26 14 47 1012 10 E/SE 33.3
Ieri h: 16:50 sereno Sereno 26 14 47 1012 10 E/SE 33.3
Ieri h: 16:20 sereno Sereno 26 14 47 1012 10 E/SE 33.3
Ieri h: 15:50 sereno Sereno 28 13 39 1012 10 E 37
Ieri h: 15:20 poco_nuvoloso Poco Nuvoloso 28 12 37 1012 10 E 33.3
Ieri h: 14:50 sereno Sereno 29 12 35 1012 10 E 35.2
Ieri h: 14:20 poco_nuvoloso Poco Nuvoloso 29 12 35 1012 10 E 38.8
Ieri h: 13:50 sereno Sereno 30 13 35 1012 10 E 33.3
Ieri h: 13:20 poco_nuvoloso Poco Nuvoloso 29 13 37 1012 10 E 29.6
Ieri h: 12:50 sereno Sereno 28 14 42 1013 10 E/SE 18.5
Ieri h: 12:20 sereno Sereno 27 15 47 1013 10 N 5.5
Ieri h: 11:50 sereno Sereno 26 16 54 1014 10 O/SO 9.3
Ieri h: 11:20 sereno Sereno 25 16 57 1014 10 N 3.7
Ieri h: 10:50 sereno Sereno 25 16 57 1015 10 N 3.7
Ieri h: 10:20 poco_nuvoloso Poco Nuvoloso 23 16 64 1015 10 N 3.7
Ieri h: 09:50 poco_nuvoloso Poco Nuvoloso 23 16 64 1015 10 N 5.5
Ieri h: 09:20 nuvoloso Nuvoloso 22 17 73 1015 10 N 5.5
Ieri h: 08:20 molto_nuvoloso Molto Nuvoloso 20 17 82 1015 10 N 3.7
Ieri h: 07:20 molto_nuvoloso Molto Nuvoloso 19 17 88 1015 10 N 3.7